Time;durP1;ratioP1;P1;durP2;ratioP2;P2;SDS_P1;SDS_P2;PMS_P1;PMS_P2;Temp;Humidity;BMP_temperature;BMP_pressure;BME280_temperature;BME280_humidity;BME280_pressure;Samples;Min_cycle;Max_cycle;Signal;HPM_P1;HPM_P2
2023/02/07 00:02:10;;;;;;;;;;;;;;;;;;4954150;28;19972;-74
2023/02/07 00:04:36;;;;;;;;;;;;;;;;;;4971669;28;19921;-74
2023/02/07 00:07:02;;;;;;;;;;;;;;;;;;4979927;28;19926;-74
2023/02/07 00:09:28;;;;;;;;;;;;;;;;;;4964293;28;19934;-74
2023/02/07 00:11:54;;;;;;;;;;;;;;;;;;4957686;28;20652;-74
2023/02/07 00:14:19;;;;;;;;;;;;;;;;;;4964145;28;19926;-74
2023/02/07 00:16:45;;;;;;;;;;;;;;;;;;4961890;28;20000;-74
2023/02/07 00:19:11;;;;;;;;;;;;;;;;;;4995459;28;19918;-74
2023/02/07 00:21:37;;;;;;;;;;;;;;;;;;4963229;28;19925;-74
2023/02/07 00:24:03;;;;;;;;;;;;;;;;;;4959845;28;19925;-74
2023/02/07 00:26:29;;;;;;;;;;;;;;;;;;4963265;28;19924;-74
2023/02/07 00:28:55;;;;;;;;;;;;;;;;;;4964034;28;19926;-74
2023/02/07 00:31:21;;;;;;;;;;;;;;;;;;4955016;28;19930;-74
2023/02/07 00:33:47;;;;;;;;;;;;;;;;;;4955647;28;19968;-74
2023/02/07 00:36:13;;;;;;;;;;;;;;;;;;4964228;28;19973;-74
2023/02/07 00:38:39;;;;;;;;;;;;;;;;;;4963932;28;19926;-74
2023/02/07 00:41:05;;;;;;;;;;;;;;;;;;4979260;28;19918;-74
2023/02/07 00:43:30;;;;;;;;;;;;;;;;;;4966634;28;20496;-74
2023/02/07 00:45:58;;;;;;;;;;;;;;;;;;4962878;28;20048;-74
2023/02/07 00:48:24;;;;;;;;;;;;;;;;;;4962168;28;20833;-74
2023/02/07 00:50:50;;;;;;;;;;;;;;;;;;4966568;28;20027;-74
2023/02/07 00:53:15;;;;;;;;;;;;;;;;;;4965714;28;19926;-74
2023/02/07 00:55:41;;;;;;;;;;;;;;;;;;4959501;28;19939;-74
2023/02/07 00:58:07;;;;;;;;;;;;;;;;;;4960809;28;19937;-74
2023/02/07 01:00:33;;;;;;;;;;;;;;;;;;4960193;28;19918;-74
2023/02/07 01:02:59;;;;;;;;;;;;;;;;;;4995527;28;19917;-74
2023/02/07 01:05:25;;;;;;;;;;;;;;;;;;4971852;28;20293;-74
2023/02/07 01:07:51;;;;;;;;;;;;;;;;;;4959438;28;19928;-74
2023/02/07 01:10:17;;;;;;;;;;;;;;;;;;4959879;28;19972;-74
2023/02/07 01:12:43;;;;;;;;;;;;;;;;;;4959403;28;19940;-73
2023/02/07 01:15:09;;;;;;;;;;;;;;;;;;4985845;28;19921;-73
2023/02/07 01:17:35;;;;;;;;;;;;;;;;;;4952409;28;19924;-73
2023/02/07 01:20:00;;;;;;;;;;;;;;;;;;4953609;28;20003;-74
2023/02/07 01:22:26;;;;;;;;;;;;;;;;;;4989365;28;19928;-74
2023/02/07 01:24:53;;;;;;;;;;;;;;;;;;4961957;28;19933;-74
2023/02/07 01:27:19;;;;;;;;;;;;;;;;;;4990608;28;19961;-74
2023/02/07 01:29:45;;;;;;;;;;;;;;;;;;4961937;28;20013;-74
2023/02/07 01:32:11;;;;;;;;;;;;;;;;;;4974474;28;20343;-74
2023/02/07 01:34:37;;;;;;;;;;;;;;;;;;4988701;28;19929;-74
2023/02/07 01:37:03;;;;;;;;;;;;;;;;;;4976355;28;19979;-74
2023/02/07 01:39:29;;;;;;;;;;;;;;;;;;4963958;28;19972;-74
2023/02/07 01:41:55;;;;;;;;;;;;;;;;;;4976884;28;19921;-74
2023/02/07 01:44:21;;;;;;;;;;;;;;;;;;4992941;28;19925;-74
2023/02/07 01:46:46;;;;;;;;;;;;;;;;;;4957441;28;19922;-74
2023/02/07 01:49:12;;;;;;;;;;;;;;;;;;4947739;28;19929;-74
2023/02/07 01:51:38;;;;;;;;;;;;;;;;;;4961169;28;19929;-74
2023/02/07 01:54:04;;;;;;;;;;;;;;;;;;4961146;28;20080;-74
2023/02/07 01:56:30;;;;;;;;;;;;;;;;;;4960510;28;19918;-74
2023/02/07 01:58:56;;;;;;;;;;;;;;;;;;4963062;28;19921;-73
2023/02/07 02:01:22;;;;;;;;;;;;;;;;;;4957602;28;19933;-74
2023/02/07 02:03:48;;;;;;;;;;;;;;;;;;4964263;28;19923;-74
2023/02/07 02:06:14;;;;;;;;;;;;;;;;;;4962923;28;19925;-74
2023/02/07 02:08:40;;;;;;;;;;;;;;;;;;4987778;28;19921;-74
2023/02/07 02:11:06;;;;;;;;;;;;;;;;;;4959951;28;20411;-74
2023/02/07 02:13:32;;;;;;;;;;;;;;;;;;4959774;28;20739;-74
2023/02/07 02:15:58;;;;;;;;;;;;;;;;;;4953975;28;19918;-74
2023/02/07 02:18:27;;;;;;;;;;;;;;;;;;4956756;28;19925;-74
2023/02/07 02:20:53;;;;;;;;;;;;;;;;;;4956503;28;20009;-75
2023/02/07 02:23:19;;;;;;;;;;;;;;;;;;4959789;28;19976;-74
2023/02/07 02:25:45;;;;;;;;;;;;;;;;;;4963265;28;20351;-75
2023/02/07 02:28:11;;;;;;;;;;;;;;;;;;4955121;28;20507;-74
2023/02/07 02:30:37;;;;;;;;;;;;;;;;;;4992487;28;19925;-75
2023/02/07 02:33:03;;;;;;;;;;;;;;;;;;4960444;28;19921;-75
2023/02/07 02:35:29;;;;;;;;;;;;;;;;;;4957740;28;19929;-75
2023/02/07 02:37:55;;;;;;;;;;;;;;;;;;4944778;28;20156;-75
2023/02/07 02:40:20;;;;;;;;;;;;;;;;;;4961960;28;19930;-74
2023/02/07 02:42:46;;;;;;;;;;;;;;;;;;4977599;28;19921;-75
2023/02/07 02:45:12;;;;;;;;;;;;;;;;;;4991394;28;19924;-75
2023/02/07 02:47:38;;;;;;;;;;;;;;;;;;4960410;28;19922;-75
2023/02/07 02:50:04;;;;;;;;;;;;;;;;;;4953471;28;19980;-74
2023/02/07 02:52:30;;;;;;;;;;;;;;;;;;4957972;28;19967;-74
2023/02/07 02:54:56;;;;;;;;;;;;;;;;;;4960685;28;19956;-75
2023/02/07 02:57:22;;;;;;;;;;;;;;;;;;4958341;28;20590;-75
2023/02/07 02:59:48;;;;;;;;;;;;;;;;;;4965280;28;20407;-75
2023/02/07 03:02:14;;;;;;;;;;;;;;;;;;4991051;28;20584;-74
2023/02/07 03:04:40;;;;;;;;;;;;;;;;;;4960826;28;19926;-75
2023/02/07 03:07:06;;;;;;;;;;;;;;;;;;4961725;28;20490;-75
2023/02/07 03:09:32;;;;;;;;;;;;;;;;;;4960655;28;20020;-74
2023/02/07 03:11:58;;;;;;;;;;;;;;;;;;4960575;28;19930;-74
2023/02/07 03:14:24;;;;;;;;;;;;;;;;;;4957839;28;19972;-74
2023/02/07 03:16:50;;;;;;;;;;;;;;;;;;4960054;28;20411;-75
2023/02/07 03:19:17;;;;;;;;;;;;;;;;;;4941831;28;19964;-75
2023/02/07 03:21:43;;;;;;;;;;;;;;;;;;4958528;28;20301;-74
2023/02/07 03:24:09;;;;;;;;;;;;;;;;;;4958469;28;19926;-74
2023/02/07 03:26:35;;;;;;;;;;;;;;;;;;4991826;28;19921;-74
2023/02/07 03:29:01;;;;;;;;;;;;;;;;;;4962760;28;19929;-74
2023/02/07 03:31:26;;;;;;;;;;;;;;;;;;4964028;28;19926;-74
2023/02/07 03:33:52;;;;;;;;;;;;;;;;;;4961486;28;19926;-74
2023/02/07 03:36:18;;;;;;;;;;;;;;;;;;4995526;28;19930;-74
2023/02/07 03:38:44;;;;;;;;;;;;;;;;;;4993956;28;20293;-74
2023/02/07 03:41:10;;;;;;;;;;;;;;;;;;4978435;28;19918;-74
2023/02/07 03:43:36;;;;;;;;;;;;;;;;;;4962644;28;19929;-74
2023/02/07 03:46:02;;;;;;;;;;;;;;;;;;4963262;28;20012;-74
2023/02/07 03:48:28;;;;;;;;;;;;;;;;;;4979248;28;19921;-74
2023/02/07 03:50:54;;;;;;;;;;;;;;;;;;4945702;28;19951;-74
2023/02/07 03:53:20;;;;;;;;;;;;;;;;;;4962619;28;19924;-74
2023/02/07 03:55:46;;;;;;;;;;;;;;;;;;4964317;28;19969;-74
2023/02/07 03:58:11;;;;;;;;;;;;;;;;;;4966434;28;19976;-74
2023/02/07 04:00:37;;;;;;;;;;;;;;;;;;4962212;28;20046;-74
2023/02/07 04:03:03;;;;;;;;;;;;;;;;;;4993594;28;20026;-74
2023/02/07 04:05:29;;;;;;;;;;;;;;;;;;4963710;28;19929;-74
2023/02/07 04:07:55;;;;;;;;;;;;;;;;;;4964876;28;19918;-74
2023/02/07 04:10:21;;;;;;;;;;;;;;;;;;4962932;28;19937;-74
2023/02/07 04:12:47;;;;;;;;;;;;;;;;;;4965027;28;20012;-74
2023/02/07 04:15:13;;;;;;;;;;;;;;;;;;4981252;28;20380;-74
2023/02/07 04:17:39;;;;;;;;;;;;;;;;;;4967206;28;19921;-74
2023/02/07 04:20:05;;;;;;;;;;;;;;;;;;4960544;28;19932;-74
2023/02/07 04:22:31;;;;;;;;;;;;;;;;;;4991202;28;19969;-74
2023/02/07 04:24:57;;;;;;;;;;;;;;;;;;4960518;28;20453;-74
2023/02/07 04:27:22;;;;;;;;;;;;;;;;;;4963299;28;19918;-74
2023/02/07 04:29:48;;;;;;;;;;;;;;;;;;4942861;28;19922;-74
2023/02/07 04:32:14;;;;;;;;;;;;;;;;;;4994477;28;19964;-74
2023/02/07 04:34:40;;;;;;;;;;;;;;;;;;4957011;28;20726;-74
2023/02/07 04:37:06;;;;;;;;;;;;;;;;;;4976271;28;19925;-74
2023/02/07 04:39:32;;;;;;;;;;;;;;;;;;4963455;28;19922;-74
2023/02/07 04:41:58;;;;;;;;;;;;;;;;;;4962432;28;19925;-74
2023/02/07 04:44:24;;;;;;;;;;;;;;;;;;4962995;28;20373;-74
2023/02/07 04:46:50;;;;;;;;;;;;;;;;;;4963629;28;19933;-74
2023/02/07 04:49:16;;;;;;;;;;;;;;;;;;4960756;28;19928;-74
2023/02/07 04:51:42;;;;;;;;;;;;;;;;;;4995784;28;19928;-74
2023/02/07 04:54:08;;;;;;;;;;;;;;;;;;4964044;28;20024;-75
2023/02/07 04:56:34;;;;;;;;;;;;;;;;;;4964548;28;19932;-75
2023/02/07 04:58:59;;;;;;;;;;;;;;;;;;4949972;28;19933;-74
2023/02/07 05:01:25;;;;;;;;;;;;;;;;;;4953302;28;20005;-74
2023/02/07 05:03:51;;;;;;;;;;;;;;;;;;4976959;28;19972;-73
2023/02/07 05:06:17;;;;;;;;;;;;;;;;;;4976344;28;19987;-73
2023/02/07 05:08:43;;;;;;;;;;;;;;;;;;4958481;28;19925;-74
2023/02/07 05:11:09;;;;;;;;;;;;;;;;;;4960318;28;19967;-74
2023/02/07 05:13:35;;;;;;;;;;;;;;;;;;4962735;28;19987;-75
2023/02/07 05:16:01;;;;;;;;;;;;;;;;;;4994213;28;20484;-74
2023/02/07 05:18:27;;;;;;;;;;;;;;;;;;4980102;28;19965;-74
2023/02/07 05:20:53;;;;;;;;;;;;;;;;;;4975896;28;20035;-74
2023/02/07 05:23:19;;;;;;;;;;;;;;;;;;4965760;28;20040;-74
2023/02/07 05:25:45;;;;;;;;;;;;;;;;;;4966180;28;20422;-74
2023/02/07 05:28:11;;;;;;;;;;;;;;;;;;4962618;28;20388;-74
2023/02/07 05:30:37;;;;;;;;;;;;;;;;;;4966804;28;19980;-73
2023/02/07 05:33:03;;;;;;;;;;;;;;;;;;4968571;28;20021;-73
2023/02/07 05:35:29;;;;;;;;;;;;;;;;;;4951976;28;19925;-73
2023/02/07 05:37:55;;;;;;;;;;;;;;;;;;4939630;28;19918;-74
2023/02/07 05:40:21;;;;;;;;;;;;;;;;;;4933513;28;20399;-74
2023/02/07 05:42:47;;;;;;;;;;;;;;;;;;4954154;28;19925;-74
2023/02/07 05:45:13;;;;;;;;;;;;;;;;;;4964613;28;19931;-74
2023/02/07 05:47:39;;;;;;;;;;;;;;;;;;4998288;28;19917;-74
2023/02/07 05:50:05;;;;;;;;;;;;;;;;;;4964248;28;19922;-74
2023/02/07 05:52:31;;;;;;;;;;;;;;;;;;4965665;28;20072;-74
2023/02/07 05:54:57;;;;;;;;;;;;;;;;;;4994002;28;20660;-74
2023/02/07 05:57:23;;;;;;;;;;;;;;;;;;4983138;23;19922;-83
2023/02/07 05:59:52;;;;;;;;;;;;;;;;;;4985259;28;19978;-84
2023/02/07 06:02:18;;;;;;;;;;;;;;;;;;4984895;28;19917;-83
2023/02/07 06:04:43;;;;;;;;;;;;;;;;;;4981339;28;19931;-82
2023/02/07 06:07:09;;;;;;;;;;;;;;;;;;4963933;28;19918;-83
2023/02/07 06:09:35;;;;;;;;;;;;;;;;;;4966614;28;20017;-82
2023/02/07 06:12:01;;;;;;;;;;;;;;;;;;4963071;28;19925;-84
2023/02/07 06:14:27;;;;;;;;;;;;;;;;;;4959644;28;19992;-83
2023/02/07 06:16:53;;;;;;;;;;;;;;;;;;4957976;28;19964;-84
2023/02/07 06:19:19;;;;;;;;;;;;;;;;;;4963389;28;19972;-84
2023/02/07 06:21:45;;;;;;;;;;;;;;;;;;4966159;28;19917;-84
2023/02/07 06:24:11;;;;;;;;;;;;;;;;;;4967544;28;19964;-84
2023/02/07 06:26:37;;;;;;;;;;;;;;;;;;4961306;28;19918;-84
2023/02/07 06:29:03;;;;;;;;;;;;;;;;;;4967146;28;19921;-86
2023/02/07 06:32:03;;;;;;;;;;;;;;;;;;4966412;28;20341;-85
2023/02/07 06:34:25;;;;;;;;;;;;;;;;;;4966208;28;19968;-84
2023/02/07 06:36:51;;;;;;;;;;;;;;;;;;4950281;28;19960;-85
2023/02/07 06:39:17;;;;;;;;;;;;;;;;;;4958869;28;19918;-84
2023/02/07 06:41:42;;;;;;;;;;;;;;;;;;4962751;28;20364;-84
2023/02/07 06:44:08;;;;;;;;;;;;;;;;;;4969137;28;20367;-84
2023/02/07 06:46:34;;;;;;;;;;;;;;;;;;4965390;28;19932;-83
2023/02/07 06:49:00;;;;;;;;;;;;;;;;;;4969266;28;20074;-85
2023/02/07 06:51:26;;;;;;;;;;;;;;;;;;4965513;28;20020;-84
2023/02/07 06:53:52;;;;;;;;;;;;;;;;;;4962364;28;19928;-86
2023/02/07 06:56:18;;;;;;;;;;;;;;;;;;4963122;28;19964;-84
2023/02/07 06:58:44;;;;;;;;;;;;;;;;;;4963055;28;19973;-84
2023/02/07 07:01:25;;;;;;;;;;;;;;;;;;4963710;28;19961;-85
2023/02/07 07:04:08;;;;;;;;;;;;;;;;;;4969552;28;19984;-84
2023/02/07 07:06:34;;;;;;;;;;;;;;;;;;4960530;28;19964;-83
2023/02/07 07:12:08;;;;;;;;;;;;;;;;;;4976617;28;19921;-82
2023/02/07 07:17:32;;;;;;;;;;;;;;;;;;4961891;28;20347;-84
2023/02/07 07:23:09;;;;;;;;;;;;;;;;;;4983602;28;20450;-83
2023/02/07 07:25:48;;;;;;;;;;;;;;;;;;4982167;28;19967;-83
2023/02/07 07:28:14;;;;;;;;;;;;;;;;;;4965344;28;20013;-83
2023/02/07 07:30:52;;;;;;;;;;;;;;;;;;4967040;28;20396;-82
2023/02/07 07:33:24;;;;;;;;;;;;;;;;;;4954822;28;20269;-82
2023/02/07 07:35:55;;;;;;;;;;;;;;;;;;4952996;28;20376;-83
2023/02/07 07:38:27;;;;;;;;;;;;;;;;;;4968115;28;19925;-82
2023/02/07 07:41:01;;;;;;;;;;;;;;;;;;4955581;28;19953;-82
2023/02/07 07:49:27;;;;;;;;;;;;;;;;;;4966972;28;20458;-82
2023/02/07 07:54:56;;;;;;;;;;;;;;;;;;4967029;28;19918;-83
2023/02/07 07:57:26;;;;;;;;;;;;;;;;;;4970279;28;19924;-83
2023/02/07 07:59:52;;;;;;;;;;;;;;;;;;4949855;28;19922;-83
2023/02/07 08:02:18;;;;;;;;;;;;;;;;;;4967911;28;19943;-82
2023/02/07 08:04:47;;;;;;;;;;;;;;;;;;4950484;28;20396;-83
2023/02/07 08:07:25;;;;;;;;;;;;;;;;;;4965309;28;20555;-82
2023/02/07 08:10:00;;;;;;;;;;;;;;;;;;4965117;28;19922;-81
2023/02/07 08:12:29;;;;;;;;;;;;;;;;;;4952429;28;19918;-82
2023/02/07 08:17:56;;;;;;;;;;;;;;;;;;4960610;28;21868;-82
2023/02/07 08:23:16;;;;;;;;;;;;;;;;;;4970952;28;19924;-82
2023/02/07 08:25:43;;;;;;;;;;;;;;;;;;4968029;28;19928;-82
2023/02/07 08:28:08;;;;;;;;;;;;;;;;;;4968871;28;19917;-81
2023/02/07 08:30:34;;;;;;;;;;;;;;;;;;4984142;28;20360;-82
2023/02/07 08:33:00;;;;;;;;;;;;;;;;;;4956120;28;19985;-82
2023/02/07 08:35:26;;;;;;;;;;;;;;;;;;4969998;28;20000;-81
2023/02/07 08:37:52;;;;;;;;;;;;;;;;;;4968722;28;19968;-81
2023/02/07 08:40:21;;;;;;;;;;;;;;;;;;4968859;28;19968;-82
2023/02/07 08:42:47;;;;;;;;;;;;;;;;;;4947801;28;20008;-81
2023/02/07 08:45:17;;;;;;;;;;;;;;;;;;4951162;28;19949;-81
2023/02/07 08:47:45;;;;;;;;;;;;;;;;;;4968543;28;19972;-81
2023/02/07 08:50:11;;;;;;;;;;;;;;;;;;4969822;28;19925;-81
2023/02/07 08:52:37;;;;;;;;;;;;;;;;;;4971088;28;20308;-82
2023/02/07 08:55:03;;;;;;;;;;;;;;;;;;4964650;28;19925;-81
2023/02/07 08:57:29;;;;;;;;;;;;;;;;;;4957139;28;19972;-81
2023/02/07 08:59:55;;;;;;;;;;;;;;;;;;4982755;28;19964;-83
2023/02/07 09:02:29;;;;;;;;;;;;;;;;;;4971168;28;19917;-81
2023/02/07 09:04:58;;;;;;;;;;;;;;;;;;4949003;28;19921;-82
2023/02/07 09:07:26;;;;;;;;;;;;;;;;;;4955477;28;20359;-82
2023/02/07 09:12:47;;;;;;;;;;;;;;;;;;4969707;28;19922;-83
2023/02/07 09:15:15;;;;;;;;;;;;;;;;;;4990535;28;20149;-83
2023/02/07 09:17:42;;;;;;;;;;;;;;;;;;4972365;28;19922;-83
2023/02/07 09:20:25;;;;;;;;;;;;;;;;;;4955156;28;19924;-83
2023/02/07 09:23:18;;;;;;;;;;;;;;;;;;4966418;28;19961;-81
2023/02/07 09:25:45;;;;;;;;;;;;;;;;;;4991261;28;19921;-82
2023/02/07 09:28:11;;;;;;;;;;;;;;;;;;4970194;28;19922;-83
2023/02/07 09:30:37;;;;;;;;;;;;;;;;;;4972638;28;19925;-82
2023/02/07 09:33:02;;;;;;;;;;;;;;;;;;4972593;28;19987;-84
2023/02/07 09:35:29;;;;;;;;;;;;;;;;;;4955772;28;19918;-82
2023/02/07 09:37:55;;;;;;;;;;;;;;;;;;4970894;28;19929;-83
2023/02/07 09:40:21;;;;;;;;;;;;;;;;;;4973875;28;19921;-82
2023/02/07 09:42:47;;;;;;;;;;;;;;;;;;4958664;28;19925;-82
2023/02/07 09:45:15;;;;;;;;;;;;;;;;;;4970096;28;19929;-81
2023/02/07 09:47:41;;;;;;;;;;;;;;;;;;4956287;28;19987;-82
2023/02/07 09:50:10;;;;;;;;;;;;;;;;;;4968642;28;20410;-85
2023/02/07 09:52:37;;;;;;;;;;;;;;;;;;4982846;28;19918;-82
2023/02/07 09:55:06;;;;;;;;;;;;;;;;;;4954085;28;20376;-83
2023/02/07 09:57:45;;;;;;;;;;;;;;;;;;4971719;28;19979;-86
2023/02/07 10:00:14;;;;;;;;;;;;;;;;;;4955064;28;20020;-84
2023/02/07 10:02:49;;;;;;;;;;;;;;;;;;4973264;28;19917;-83
2023/02/07 10:05:18;;;;;;;;;;;;;;;;;;4975910;28;19922;-84
2023/02/07 10:07:50;;;;;;;;;;;;;;;;;;4970851;28;19976;-85
2023/02/07 10:10:19;;;;;;;;;;;;;;;;;;4975019;28;19928;-83
2023/02/07 10:13:06;;;;;;;;;;;;;;;;;;4971263;28;20299;-84
2023/02/07 10:15:37;;;;;;;;;;;;;;;;;;4966578;28;19929;-85
2023/02/07 10:18:03;;;;;;;;;;;;;;;;;;4970373;28;20660;-83
2023/02/07 10:20:29;;;;;;;;;;;;;;;;;;4973198;28;19918;-83
2023/02/07 10:22:58;;;;;;;;;;;;;;;;;;4958248;28;19924;-84
2023/02/07 10:25:24;;;;;;;;;;;;;;;;;;4971317;28;19918;-83
2023/02/07 10:27:50;;;;;;;;;;;;;;;;;;4970082;28;19925;-84
2023/02/07 10:30:16;;;;;;;;;;;;;;;;;;4965679;28;19922;-83
2023/02/07 10:32:46;;;;;;;;;;;;;;;;;;4985663;28;19922;-84
2023/02/07 10:35:24;;;;;;;;;;;;;;;;;;4969406;28;19924;-83
2023/02/07 10:37:53;;;;;;;;;;;;;;;;;;4957537;28;19964;-83
2023/02/07 10:40:19;;;;;;;;;;;;;;;;;;4970586;28;20355;-84
2023/02/07 10:42:48;;;;;;;;;;;;;;;;;;4955680;28;20054;-85
2023/02/07 10:45:14;;;;;;;;;;;;;;;;;;4971147;28;19973;-83
2023/02/07 10:47:40;;;;;;;;;;;;;;;;;;4968768;28;19922;-82
2023/02/07 10:50:06;;;;;;;;;;;;;;;;;;4987466;28;19930;-84
2023/02/07 10:52:32;;;;;;;;;;;;;;;;;;4971082;28;19921;-83
2023/02/07 10:54:58;;;;;;;;;;;;;;;;;;4970692;28;19949;-83
2023/02/07 10:57:24;;;;;;;;;;;;;;;;;;4954100;28;19925;-83
2023/02/07 10:59:50;;;;;;;;;;;;;;;;;;4970490;28;19922;-83
2023/02/07 11:02:16;;;;;;;;;;;;;;;;;;4972314;28;20134;-83
2023/02/07 11:04:42;;;;;;;;;;;;;;;;;;4969817;28;19925;-83
2023/02/07 11:07:08;;;;;;;;;;;;;;;;;;4956864;28;20038;-84
2023/02/07 11:09:37;;;;;;;;;;;;;;;;;;4968036;28;20088;-83
2023/02/07 11:12:03;;;;;;;;;;;;;;;;;;4967517;28;19957;-83
2023/02/07 11:14:29;;;;;;;;;;;;;;;;;;4959201;28;19918;-83
2023/02/07 11:16:55;;;;;;;;;;;;;;;;;;4971979;28;19925;-83
2023/02/07 11:19:24;;;;;;;;;;;;;;;;;;4976178;28;19929;-83
2023/02/07 11:22:05;;;;;;;;;;;;;;;;;;4971517;28;19973;-83
2023/02/07 11:24:31;;;;;;;;;;;;;;;;;;4954898;28;19918;-84
2023/02/07 11:26:57;;;;;;;;;;;;;;;;;;4957422;28;19957;-83
2023/02/07 11:29:26;;;;;;;;;;;;;;;;;;4956996;28;20281;-83
2023/02/07 11:31:52;;;;;;;;;;;;;;;;;;4956867;28;19948;-84
2023/02/07 11:34:18;;;;;;;;;;;;;;;;;;4956200;28;19917;-85
2023/02/07 11:36:56;;;;;;;;;;;;;;;;;;4956792;28;20564;-85
2023/02/07 11:39:22;;;;;;;;;;;;;;;;;;4972968;28;20009;-85
2023/02/07 11:41:51;;;;;;;;;;;;;;;;;;4970867;28;19977;-84
2023/02/07 11:44:23;;;;;;;;;;;;;;;;;;4961075;28;19968;-82
2023/02/07 11:46:49;;;;;;;;;;;;;;;;;;4956058;28;19922;-83
2023/02/07 11:49:31;;;;;;;;;;;;;;;;;;4972100;28;20304;-84
2023/02/07 11:52:00;;;;;;;;;;;;;;;;;;4975815;28;19930;-84
2023/02/07 11:54:39;;;;;;;;;;;;;;;;;;4986652;28;19917;-84
2023/02/07 11:57:05;;;;;;;;;;;;;;;;;;4980861;23;19944;-74
2023/02/07 11:59:32;;;;;;;;;;;;;;;;;;4982043;28;20458;-74
2023/02/07 12:01:58;;;;;;;;;;;;;;;;;;5000723;28;19918;-74
2023/02/07 12:04:24;;;;;;;;;;;;;;;;;;4984596;28;19933;-74
2023/02/07 12:06:50;;;;;;;;;;;;;;;;;;4979037;28;20600;-75
2023/02/07 12:09:16;;;;;;;;;;;;;;;;;;4968667;28;19929;-74
2023/02/07 12:11:42;;;;;;;;;;;;;;;;;;4968789;28;19918;-73
2023/02/07 12:14:08;;;;;;;;;;;;;;;;;;4952367;28;20520;-74
2023/02/07 12:16:34;;;;;;;;;;;;;;;;;;4986959;28;19925;-74
2023/02/07 12:19:00;;;;;;;;;;;;;;;;;;4970313;28;20004;-73
2023/02/07 12:21:25;;;;;;;;;;;;;;;;;;4966647;28;20008;-74
2023/02/07 12:23:51;;;;;;;;;;;;;;;;;;4977436;28;19918;-74
2023/02/07 12:26:17;;;;;;;;;;;;;;;;;;4971119;28;19918;-74
2023/02/07 12:28:43;;;;;;;;;;;;;;;;;;4985382;28;19972;-74
2023/02/07 12:31:09;;;;;;;;;;;;;;;;;;4964563;28;19953;-72
2023/02/07 12:33:36;;;;;;;;;;;;;;;;;;4983004;28;20042;-72
2023/02/07 12:36:02;;;;;;;;;;;;;;;;;;4951893;28;20446;-71
2023/02/07 12:38:28;;;;;;;;;;;;;;;;;;4961941;28;19953;-72
2023/02/07 12:40:54;;;;;;;;;;;;;;;;;;4987159;28;19926;-72
2023/02/07 12:43:21;;;;;;;;;;;;;;;;;;4967319;28;19925;-72
2023/02/07 12:45:47;;;;;;;;;;;;;;;;;;4953362;28;19985;-72
2023/02/07 12:48:13;;;;;;;;;;;;;;;;;;4978823;28;19934;-72
2023/02/07 12:50:39;;;;;;;;;;;;;;;;;;4968207;28;19964;-72
2023/02/07 12:53:06;;;;;;;;;;;;;;;;;;4968608;28;19917;-71
2023/02/07 12:55:32;;;;;;;;;;;;;;;;;;4959379;28;20552;-71
2023/02/07 12:57:58;;;;;;;;;;;;;;;;;;4968184;28;19952;-72
2023/02/07 13:00:24;;;;;;;;;;;;;;;;;;4968901;28;19996;-72
2023/02/07 13:02:50;;;;;;;;;;;;;;;;;;4951624;28;19921;-72
2023/02/07 13:05:15;;;;;;;;;;;;;;;;;;4967972;28;20383;-71
2023/02/07 13:07:41;;;;;;;;;;;;;;;;;;4967990;28;19924;-71
2023/02/07 13:10:07;;;;;;;;;;;;;;;;;;4983747;28;19932;-71
2023/02/07 13:12:33;;;;;;;;;;;;;;;;;;4983070;28;19928;-71
2023/02/07 13:14:59;;;;;;;;;;;;;;;;;;4968662;28;19917;-71
2023/02/07 13:17:25;;;;;;;;;;;;;;;;;;4949719;28;19975;-71
2023/02/07 13:19:52;;;;;;;;;;;;;;;;;;4949701;28;19960;-72
2023/02/07 13:22:18;;;;;;;;;;;;;;;;;;4963418;28;19926;-72
2023/02/07 13:24:44;;;;;;;;;;;;;;;;;;4985495;28;19926;-72
2023/02/07 13:27:09;;;;;;;;;;;;;;;;;;4966859;28;19926;-72
2023/02/07 13:29:35;;;;;;;;;;;;;;;;;;4967855;28;19921;-72
2023/02/07 13:32:01;;;;;;;;;;;;;;;;;;4970361;28;20266;-72
2023/02/07 13:34:27;;;;;;;;;;;;;;;;;;4966133;28;20393;-71
2023/02/07 13:36:53;;;;;;;;;;;;;;;;;;4968615;28;20059;-72
2023/02/07 13:39:19;;;;;;;;;;;;;;;;;;4966631;28;20428;-72
2023/02/07 13:41:45;;;;;;;;;;;;;;;;;;4965768;28;20016;-71
2023/02/07 13:44:11;;;;;;;;;;;;;;;;;;4965340;28;20340;-72
2023/02/07 13:46:37;;;;;;;;;;;;;;;;;;4963395;28;19926;-72
2023/02/07 13:49:03;;;;;;;;;;;;;;;;;;4966757;28;19930;-72
2023/02/07 13:51:29;;;;;;;;;;;;;;;;;;4962285;28;19929;-72
2023/02/07 13:53:55;;;;;;;;;;;;;;;;;;4962598;28;20195;-72
2023/02/07 14:02:07;;;;;;;;;;;;;;;;;;4905511;29;20193;-72
2023/02/07 14:04:33;;;;;;;;;;;;;;;;;;4952537;28;20079;-72
2023/02/07 14:07:00;;;;;;;;;;;;;;;;;;4961565;28;19932;-72
2023/02/07 14:09:27;;;;;;;;;;;;;;;;;;4962592;28;19922;-72
2023/02/07 14:11:53;;;;;;;;;;;;;;;;;;4967217;28;20056;-72
2023/02/07 14:14:19;;;;;;;;;;;;;;;;;;4964430;28;20212;-71
2023/02/07 14:16:45;;;;;;;;;;;;;;;;;;4983982;28;20041;-72
2023/02/07 14:19:11;;;;;;;;;;;;;;;;;;4966565;28;19917;-71
2023/02/07 14:21:37;;;;;;;;;;;;;;;;;;4958685;28;19925;-72
2023/02/07 14:24:03;;;;;;;;;;;;;;;;;;4960005;28;20641;-71
2023/02/07 14:26:29;;;;;;;;;;;;;;;;;;4959372;28;20001;-71
2023/02/07 14:28:55;;;;;;;;;;;;;;;;;;4956339;28;19927;-71
2023/02/07 14:31:21;;;;;;;;;;;;;;;;;;4972072;28;19922;-71
2023/02/07 14:33:47;;;;;;;;;;;;;;;;;;4951592;28;19926;-71
2023/02/07 14:36:13;;;;;;;;;;;;;;;;;;4951039;28;19921;-71
2023/02/07 14:38:39;;;;;;;;;;;;;;;;;;4959085;28;19918;-72
2023/02/07 14:41:05;;;;;;;;;;;;;;;;;;4960994;28;20411;-72
2023/02/07 14:43:30;;;;;;;;;;;;;;;;;;4976664;28;19918;-72
2023/02/07 14:45:56;;;;;;;;;;;;;;;;;;4960533;28;19928;-74
2023/02/07 14:48:22;;;;;;;;;;;;;;;;;;4948900;28;19976;-72
2023/02/07 14:50:48;;;;;;;;;;;;;;;;;;4944585;28;19922;-71
2023/02/07 14:53:14;;;;;;;;;;;;;;;;;;4955115;28;20368;-71
2023/02/07 14:55:40;;;;;;;;;;;;;;;;;;4956617;28;19917;-72
2023/02/07 14:58:06;;;;;;;;;;;;;;;;;;4959976;28;20401;-72
2023/02/07 15:00:32;;;;;;;;;;;;;;;;;;4959843;28;20357;-72
2023/02/07 15:03:01;;;;;;;;;;;;;;;;;;4979400;28;20407;-73
2023/02/07 15:05:27;;;;;;;;;;;;;;;;;;4957770;28;22773;-73
2023/02/07 15:07:53;;;;;;;;;;;;;;;;;;4958240;28;19922;-73
2023/02/07 15:10:19;;;;;;;;;;;;;;;;;;4958279;28;19925;-73
2023/02/07 15:12:45;;;;;;;;;;;;;;;;;;4956461;28;20337;-73
2023/02/07 15:15:11;;;;;;;;;;;;;;;;;;4981615;28;19971;-73
2023/02/07 15:17:37;;;;;;;;;;;;;;;;;;4963955;28;20348;-73
2023/02/07 15:20:03;;;;;;;;;;;;;;;;;;4959242;28;19926;-72
2023/02/07 15:22:29;;;;;;;;;;;;;;;;;;4960638;28;19976;-72
2023/02/07 15:24:55;;;;;;;;;;;;;;;;;;4967418;28;19976;-73
2023/02/07 15:27:21;;;;;;;;;;;;;;;;;;4959879;28;19941;-73
2023/02/07 15:29:46;;;;;;;;;;;;;;;;;;4960323;28;20300;-73
2023/02/07 15:32:12;;;;;;;;;;;;;;;;;;4962622;28;19924;-73
2023/02/07 15:34:38;;;;;;;;;;;;;;;;;;4961949;28;19976;-72
2023/02/07 15:37:04;;;;;;;;;;;;;;;;;;4964944;28;19921;-73
2023/02/07 15:39:30;;;;;;;;;;;;;;;;;;4957073;28;19925;-73
2023/02/07 15:41:56;;;;;;;;;;;;;;;;;;4958203;28;19952;-73
2023/02/07 15:44:22;;;;;;;;;;;;;;;;;;4964684;28;19917;-73
2023/02/07 15:46:48;;;;;;;;;;;;;;;;;;4958453;28;20601;-73
2023/02/07 15:49:14;;;;;;;;;;;;;;;;;;4960629;28;19937;-73
2023/02/07 15:51:40;;;;;;;;;;;;;;;;;;4969864;28;20000;-73
2023/02/07 15:54:06;;;;;;;;;;;;;;;;;;4960387;28;20007;-73
2023/02/07 15:56:32;;;;;;;;;;;;;;;;;;4963553;28;19930;-73
2023/02/07 15:58:58;;;;;;;;;;;;;;;;;;4962761;28;20494;-73
2023/02/07 16:01:24;;;;;;;;;;;;;;;;;;4945491;28;19922;-72
2023/02/07 16:03:53;;;;;;;;;;;;;;;;;;4966517;28;19918;-73
2023/02/07 16:06:19;;;;;;;;;;;;;;;;;;4961250;28;19925;-73
2023/02/07 16:08:45;;;;;;;;;;;;;;;;;;4965913;28;19930;-72
2023/02/07 16:11:11;;;;;;;;;;;;;;;;;;4960783;28;20440;-72
2023/02/07 16:13:37;;;;;;;;;;;;;;;;;;4958418;28;19939;-72
2023/02/07 16:16:03;;;;;;;;;;;;;;;;;;4936085;28;19975;-72
2023/02/07 16:18:29;;;;;;;;;;;;;;;;;;4962321;28;20382;-72
2023/02/07 16:20:55;;;;;;;;;;;;;;;;;;4963797;28;19949;-72
2023/02/07 16:23:21;;;;;;;;;;;;;;;;;;4954155;28;19917;-73
2023/02/07 16:25:47;;;;;;;;;;;;;;;;;;4974747;28;19925;-72
2023/02/07 16:28:13;;;;;;;;;;;;;;;;;;4938371;28;20647;-73
2023/02/07 16:30:39;;;;;;;;;;;;;;;;;;4954266;28;20434;-72
2023/02/07 16:33:05;;;;;;;;;;;;;;;;;;4950620;28;20691;-73
2023/02/07 16:35:31;;;;;;;;;;;;;;;;;;4958260;28;19925;-72
2023/02/07 16:37:57;;;;;;;;;;;;;;;;;;4957926;28;20347;-72
2023/02/07 16:40:25;;;;;;;;;;;;;;;;;;4959292;28;19988;-72
2023/02/07 16:42:51;;;;;;;;;;;;;;;;;;4954346;28;21126;-72
2023/02/07 16:45:17;;;;;;;;;;;;;;;;;;4974541;28;20471;-72
2023/02/07 16:47:43;;;;;;;;;;;;;;;;;;4956080;28;20373;-72
2023/02/07 16:50:09;;;;;;;;;;;;;;;;;;4958485;28;19925;-72
2023/02/07 16:52:34;;;;;;;;;;;;;;;;;;4941055;28;20481;-72
2023/02/07 16:55:00;;;;;;;;;;;;;;;;;;4947217;28;19917;-72
2023/02/07 16:57:26;;;;;;;;;;;;;;;;;;4951269;28;19969;-72
2023/02/07 16:59:52;;;;;;;;;;;;;;;;;;4949827;28;19918;-72
2023/02/07 17:02:19;;;;;;;;;;;;;;;;;;4948091;28;19935;-72
2023/02/07 17:04:45;;;;;;;;;;;;;;;;;;4953587;28;19917;-73
2023/02/07 17:07:11;;;;;;;;;;;;;;;;;;4930692;28;20361;-72
2023/02/07 17:09:36;;;;;;;;;;;;;;;;;;4952140;28;19925;-72
2023/02/07 17:12:02;;;;;;;;;;;;;;;;;;4956887;28;19936;-72
2023/02/07 17:14:28;;;;;;;;;;;;;;;;;;4949138;28;20015;-72
2023/02/07 17:16:54;;;;;;;;;;;;;;;;;;4976868;28;19926;-73